createdAt,value
2017-05-24T00:00:02.510Z,974.31
2017-05-24T00:01:03.214Z,974.34
2017-05-24T00:02:03.915Z,974.33
2017-05-24T00:03:04.620Z,974.37
2017-05-24T00:04:05.524Z,974.30
2017-05-24T00:05:06.226Z,974.35
2017-05-24T00:06:06.930Z,974.34
2017-05-24T00:07:07.636Z,974.36
2017-05-24T00:08:08.336Z,974.38
2017-05-24T00:09:09.040Z,974.38
2017-05-24T00:10:09.748Z,974.38
2017-05-24T00:11:10.454Z,974.43
2017-05-24T00:12:11.155Z,974.43
2017-05-24T00:13:11.857Z,974.43
2017-05-24T00:14:12.759Z,974.43
2017-05-24T00:15:13.462Z,974.44
2017-05-24T00:16:14.165Z,974.45
2017-05-24T00:17:14.869Z,974.44
2017-05-24T00:18:15.575Z,974.49
2017-05-24T00:19:16.534Z,974.49
2017-05-24T00:20:17.236Z,974.48
2017-05-24T00:21:17.939Z,974.47
2017-05-24T00:22:18.642Z,974.49
2017-05-24T00:23:19.342Z,974.52
2017-05-24T00:24:20.287Z,974.53
2017-05-24T00:25:20.986Z,974.50
2017-05-24T00:26:21.686Z,974.49
2017-05-24T00:27:22.387Z,974.59
2017-05-24T00:28:23.090Z,974.57
2017-05-24T00:29:24.044Z,974.61
2017-05-24T00:30:24.744Z,974.64
2017-05-24T00:31:25.447Z,974.60
2017-05-24T00:32:26.147Z,974.58
2017-05-24T00:33:26.850Z,974.59
2017-05-24T00:34:27.802Z,974.62
2017-05-24T00:35:28.511Z,974.58
2017-05-24T00:36:29.215Z,974.60
2017-05-24T00:37:29.919Z,974.60
2017-05-24T00:38:30.619Z,974.61
2017-05-24T00:39:31.530Z,974.60
2017-05-24T00:40:32.232Z,974.64
2017-05-24T00:41:32.934Z,974.58
2017-05-24T00:42:33.637Z,974.56
2017-05-24T00:43:34.337Z,974.52
2017-05-24T00:44:35.239Z,974.53
2017-05-24T00:45:35.939Z,974.59
2017-05-24T00:46:36.639Z,974.57
2017-05-24T00:47:37.345Z,974.57
2017-05-24T00:48:38.047Z,974.60
2017-05-24T00:49:39.001Z,974.60
2017-05-24T00:50:39.702Z,974.54
2017-05-24T00:51:40.404Z,974.55
2017-05-24T00:52:41.108Z,974.54
2017-05-24T00:53:41.817Z,974.59
2017-05-24T00:54:42.718Z,974.52
2017-05-24T00:55:43.423Z,974.54
2017-05-24T00:56:44.127Z,974.50
2017-05-24T00:57:44.834Z,974.53
2017-05-24T00:58:45.535Z,974.49
2017-05-24T00:59:46.488Z,974.46
2017-05-24T01:00:47.188Z,974.46
2017-05-24T01:01:47.942Z,974.41
2017-05-24T01:02:48.653Z,974.42
2017-05-24T01:03:49.355Z,974.45
2017-05-24T01:04:50.272Z,974.47
2017-05-24T01:05:50.978Z,974.46
2017-05-24T01:06:51.680Z,974.48
2017-05-24T01:07:52.381Z,974.52
2017-05-24T01:08:53.087Z,974.49
2017-05-24T01:09:53.993Z,974.49
2017-05-24T01:10:54.698Z,974.48
2017-05-24T01:11:55.407Z,974.49
2017-05-24T01:12:56.112Z,974.50
2017-05-24T01:13:56.816Z,974.48
2017-05-24T01:14:57.768Z,974.50
2017-05-24T01:15:58.476Z,974.49
2017-05-24T01:16:59.178Z,974.54
2017-05-24T01:17:59.882Z,974.57
2017-05-24T01:19:00.582Z,974.54
2017-05-24T01:20:01.533Z,974.58
2017-05-24T01:21:02.235Z,974.59
2017-05-24T01:22:02.937Z,974.58
2017-05-24T01:23:03.643Z,974.61
2017-05-24T01:24:04.345Z,974.57
2017-05-24T01:25:05.244Z,974.59
2017-05-24T01:26:05.949Z,974.62
2017-05-24T01:27:06.652Z,974.62
2017-05-24T01:28:07.355Z,974.68
2017-05-24T01:29:08.061Z,974.59
2017-05-24T01:30:08.963Z,974.62
2017-05-24T01:31:09.663Z,974.62
2017-05-24T01:32:10.365Z,974.64
2017-05-24T01:33:11.066Z,974.62
2017-05-24T01:34:11.764Z,974.61
2017-05-24T01:35:12.668Z,974.62
2017-05-24T01:36:13.377Z,974.69
2017-05-24T01:37:14.078Z,974.66
2017-05-24T01:38:14.778Z,974.68
2017-05-24T01:39:15.478Z,974.70
2017-05-24T01:40:16.430Z,974.69
2017-05-24T01:41:17.133Z,974.72
2017-05-24T01:42:17.834Z,974.69
2017-05-24T01:43:18.537Z,974.69
2017-05-24T01:44:19.239Z,974.70
2017-05-24T01:45:20.199Z,974.74
2017-05-24T01:46:20.900Z,974.72
2017-05-24T01:47:21.603Z,974.73
2017-05-24T01:48:22.309Z,974.73
2017-05-24T01:49:23.013Z,974.81
2017-05-24T01:50:23.914Z,974.75
2017-05-24T01:51:24.616Z,974.75
2017-05-24T01:52:25.317Z,974.81
2017-05-24T01:53:26.021Z,974.79
2017-05-24T01:54:26.725Z,974.77
2017-05-24T01:55:27.677Z,974.80
2017-05-24T01:56:28.379Z,974.77
2017-05-24T01:57:29.081Z,974.77
2017-05-24T01:58:29.784Z,974.76
2017-05-24T01:59:30.486Z,974.82
2017-05-24T02:00:31.387Z,974.78
2017-05-24T02:01:32.091Z,974.74
2017-05-24T02:02:32.792Z,974.75
2017-05-24T02:03:33.493Z,974.76
2017-05-24T02:04:34.197Z,974.74
2017-05-24T02:05:35.103Z,974.84
2017-05-24T02:06:35.804Z,974.82
2017-05-24T02:07:36.504Z,974.82
2017-05-24T02:08:37.206Z,974.81
2017-05-24T02:09:37.904Z,974.77
2017-05-24T02:10:38.856Z,974.78
2017-05-24T02:11:39.557Z,974.81
2017-05-24T02:12:40.262Z,974.78
2017-05-24T02:13:40.969Z,974.85
2017-05-24T02:14:41.673Z,974.90
2017-05-24T02:15:42.624Z,974.87
2017-05-24T02:16:43.328Z,974.87
2017-05-24T02:17:44.030Z,974.87
2017-05-24T02:18:44.733Z,974.89
2017-05-24T02:19:45.432Z,974.89
2017-05-24T02:20:46.333Z,974.85
2017-05-24T02:21:47.038Z,974.86
2017-05-24T02:22:47.737Z,974.86
2017-05-24T02:23:48.440Z,974.91
2017-05-24T02:24:49.142Z,974.89
2017-05-24T02:25:50.043Z,974.92
2017-05-24T02:26:50.743Z,974.92
2017-05-24T02:27:51.444Z,974.89
2017-05-24T02:28:52.148Z,974.91
2017-05-24T02:29:52.851Z,974.94
2017-05-24T02:30:53.755Z,974.95
2017-05-24T02:31:54.454Z,974.91
2017-05-24T02:32:55.156Z,974.93
2017-05-24T02:33:55.857Z,974.94
2017-05-24T02:34:56.566Z,974.93
2017-05-24T02:35:57.265Z,974.98
2017-05-24T02:36:57.964Z,975.00
2017-05-24T02:37:58.666Z,975.02
2017-05-24T02:38:59.367Z,975.00
2017-05-24T02:40:00.070Z,975.08
2017-05-24T02:41:00.972Z,975.09
2017-05-24T02:42:01.674Z,975.05
2017-05-24T02:43:02.374Z,975.03
2017-05-24T02:44:03.076Z,975.09
2017-05-24T02:45:03.825Z,975.13
2017-05-24T02:46:04.781Z,975.14
2017-05-24T02:47:05.481Z,975.15
2017-05-24T02:48:06.183Z,975.19
2017-05-24T02:49:06.890Z,975.14
2017-05-24T02:50:07.598Z,975.20
2017-05-24T02:51:08.548Z,975.16
2017-05-24T02:52:09.254Z,975.17
2017-05-24T02:53:09.955Z,975.18
2017-05-24T02:54:10.659Z,975.19
2017-05-24T02:55:11.362Z,975.19
2017-05-24T02:56:12.323Z,975.16
2017-05-24T02:57:13.026Z,975.17
2017-05-24T02:58:13.723Z,975.16
2017-05-24T02:59:14.425Z,975.20
2017-05-24T03:00:15.128Z,975.21
2017-05-24T03:01:16.028Z,975.15
2017-05-24T03:02:16.731Z,975.15
2017-05-24T03:03:17.432Z,975.20
2017-05-24T03:04:18.135Z,975.23
2017-05-24T03:05:18.834Z,975.15
2017-05-24T03:06:19.739Z,975.15
2017-05-24T03:07:20.439Z,975.18
2017-05-24T03:08:21.143Z,975.18
2017-05-24T03:09:21.843Z,975.18
2017-05-24T03:10:22.546Z,975.27
2017-05-24T03:11:23.495Z,975.24
2017-05-24T03:12:24.199Z,975.22
2017-05-24T03:13:24.904Z,975.22
2017-05-24T03:14:25.605Z,975.18
2017-05-24T03:15:26.307Z,975.19
2017-05-24T03:16:27.208Z,975.18
2017-05-24T03:17:27.908Z,975.22
2017-05-24T03:18:28.614Z,975.21
2017-05-24T03:19:29.315Z,975.19
2017-05-24T03:20:30.014Z,975.24
2017-05-24T03:21:30.966Z,975.21
2017-05-24T03:22:31.667Z,975.27
2017-05-24T03:23:32.368Z,975.29
2017-05-24T03:24:33.074Z,975.32
2017-05-24T03:25:33.776Z,975.27
2017-05-24T03:26:34.734Z,975.30
2017-05-24T03:27:35.437Z,975.30
2017-05-24T03:28:36.142Z,975.28
2017-05-24T03:29:36.850Z,975.26
2017-05-24T03:30:37.552Z,975.27
2017-05-24T03:31:38.455Z,975.29
2017-05-24T03:32:39.154Z,975.28
2017-05-24T03:33:39.862Z,975.29
2017-05-24T03:34:40.564Z,975.36
2017-05-24T03:35:41.270Z,975.35
2017-05-24T03:36:42.222Z,975.36
2017-05-24T03:37:42.925Z,975.35
2017-05-24T03:38:43.628Z,975.43
2017-05-24T03:39:44.328Z,975.42
2017-05-24T03:40:45.031Z,975.43
2017-05-24T03:41:45.932Z,975.42
2017-05-24T03:42:46.633Z,975.46
2017-05-24T03:43:47.348Z,975.47
2017-05-24T03:44:48.047Z,975.49
2017-05-24T03:45:48.745Z,975.47
2017-05-24T03:46:49.652Z,975.48
2017-05-24T03:47:50.362Z,975.53
2017-05-24T03:48:51.065Z,975.50
2017-05-24T03:49:51.768Z,975.51
2017-05-24T03:50:52.469Z,975.55
2017-05-24T03:51:53.373Z,975.56
2017-05-24T03:52:54.075Z,975.54
2017-05-24T03:53:54.779Z,975.58
2017-05-24T03:54:55.482Z,975.61
2017-05-24T03:55:56.185Z,975.65
2017-05-24T03:56:57.091Z,975.66
2017-05-24T03:57:57.794Z,975.63
2017-05-24T03:58:58.501Z,975.66
2017-05-24T03:59:59.210Z,975.65
2017-05-24T04:00:59.911Z,975.67
2017-05-24T04:02:00.867Z,975.69
2017-05-24T04:03:01.573Z,975.73
2017-05-24T04:04:02.277Z,975.77
2017-05-24T04:05:02.985Z,975.80
2017-05-24T04:06:03.690Z,975.81
2017-05-24T04:07:04.703Z,975.83
2017-05-24T04:08:05.411Z,975.84
2017-05-24T04:09:06.115Z,975.85
2017-05-24T04:10:06.832Z,975.84
2017-05-24T04:11:07.533Z,975.88
2017-05-24T04:12:08.440Z,975.89
2017-05-24T04:13:09.145Z,975.88
2017-05-24T04:14:09.848Z,975.84
2017-05-24T04:15:10.559Z,975.87
2017-05-24T04:16:11.260Z,975.89
2017-05-24T04:17:12.169Z,975.88
2017-05-24T04:18:12.874Z,975.89
2017-05-24T04:19:13.577Z,975.88
2017-05-24T04:20:14.279Z,975.90
2017-05-24T04:21:14.986Z,975.89
2017-05-24T04:22:15.950Z,975.93
2017-05-24T04:23:16.652Z,975.91
2017-05-24T04:24:17.355Z,975.92
2017-05-24T04:25:18.055Z,975.93
2017-05-24T04:26:18.757Z,975.98
2017-05-24T04:27:19.760Z,975.98
2017-05-24T04:28:20.462Z,975.95
2017-05-24T04:29:21.164Z,975.94
2017-05-24T04:30:21.872Z,975.91
2017-05-24T04:31:22.577Z,975.96
2017-05-24T04:32:23.531Z,975.95
2017-05-24T04:33:24.231Z,975.96
2017-05-24T04:34:24.933Z,975.92
2017-05-24T04:35:25.642Z,975.91
2017-05-24T04:36:26.345Z,975.90
2017-05-24T04:37:27.298Z,975.93
2017-05-24T04:38:27.998Z,975.94
2017-05-24T04:39:28.701Z,976.01
2017-05-24T04:40:29.406Z,975.99
2017-05-24T04:41:30.115Z,976.00
2017-05-24T04:42:31.014Z,975.98
2017-05-24T04:43:31.720Z,976.03
2017-05-24T04:44:32.424Z,976.06
2017-05-24T04:45:33.126Z,976.04
2017-05-24T04:46:33.834Z,976.09
2017-05-24T04:47:34.788Z,976.07
2017-05-24T04:48:35.492Z,976.07
2017-05-24T04:49:36.193Z,976.13
2017-05-24T04:50:36.895Z,976.17
2017-05-24T04:51:37.597Z,976.14
2017-05-24T04:52:38.500Z,976.17
2017-05-24T04:53:39.201Z,976.21
2017-05-24T04:54:39.902Z,976.22
2017-05-24T04:55:40.611Z,976.20
2017-05-24T04:56:41.314Z,976.24
2017-05-24T04:57:42.317Z,976.26
2017-05-24T04:58:43.031Z,976.22
2017-05-24T04:59:43.737Z,976.23
2017-05-24T05:00:44.444Z,976.29
2017-05-24T05:01:45.144Z,976.25
2017-05-24T05:02:45.847Z,976.26
2017-05-24T05:03:46.549Z,976.28
2017-05-24T05:04:47.249Z,976.25
2017-05-24T05:05:47.953Z,976.28
2017-05-24T05:06:48.654Z,976.32
2017-05-24T05:07:49.564Z,976.32
2017-05-24T05:08:50.268Z,976.32
2017-05-24T05:09:50.971Z,976.33
2017-05-24T05:10:51.673Z,976.31
2017-05-24T05:11:52.373Z,976.43
2017-05-24T05:12:53.276Z,976.39
2017-05-24T05:13:53.984Z,976.41
2017-05-24T05:14:54.684Z,976.42
2017-05-24T05:15:55.388Z,976.39
2017-05-24T05:16:56.091Z,976.47
2017-05-24T05:17:56.995Z,976.53
2017-05-24T05:18:57.704Z,976.50
2017-05-24T05:19:58.419Z,976.51
2017-05-24T05:20:59.129Z,976.53
2017-05-24T05:21:59.832Z,976.54
2017-05-24T05:23:00.786Z,976.60
2017-05-24T05:24:01.491Z,976.54
2017-05-24T05:25:02.192Z,976.68
2017-05-24T05:26:02.898Z,976.60
2017-05-24T05:27:03.603Z,976.66
2017-05-24T05:28:04.555Z,976.64
2017-05-24T05:29:05.259Z,976.64
2017-05-24T05:30:05.965Z,976.65
2017-05-24T05:31:06.670Z,976.67
2017-05-24T05:32:07.371Z,976.64
2017-05-24T05:33:08.328Z,976.72
2017-05-24T05:34:09.032Z,976.69
2017-05-24T05:35:09.734Z,976.71
2017-05-24T05:36:10.436Z,976.69
2017-05-24T05:37:11.138Z,976.78
2017-05-24T05:38:12.098Z,976.74
2017-05-24T05:39:12.802Z,976.73
2017-05-24T05:40:13.506Z,976.74
2017-05-24T05:41:14.210Z,976.77
2017-05-24T05:42:14.914Z,976.80
2017-05-24T05:43:15.823Z,976.81
2017-05-24T05:44:16.528Z,976.81
2017-05-24T05:45:17.235Z,976.82
2017-05-24T05:46:17.942Z,976.77
2017-05-24T05:47:18.644Z,976.85
2017-05-24T05:48:19.553Z,976.77
2017-05-24T05:49:20.256Z,976.75
2017-05-24T05:50:20.959Z,976.78
2017-05-24T05:51:21.661Z,976.84
2017-05-24T05:52:22.362Z,976.76
2017-05-24T05:53:23.264Z,976.82
2017-05-24T05:54:23.967Z,976.85
2017-05-24T05:55:24.680Z,976.89
2017-05-24T05:56:25.389Z,976.92
2017-05-24T05:57:26.092Z,976.93
2017-05-24T05:58:27.045Z,976.96
2017-05-24T05:59:27.751Z,976.94
2017-05-24T06:00:28.456Z,976.91
2017-05-24T06:01:29.162Z,976.95
2017-05-24T06:02:29.866Z,977.08
2017-05-24T06:03:30.774Z,977.03
2017-05-24T06:04:31.477Z,977.02
2017-05-24T06:05:32.181Z,977.11
2017-05-24T06:06:32.883Z,977.11
2017-05-24T06:07:33.586Z,977.16
2017-05-24T06:08:34.541Z,977.16
2017-05-24T06:09:35.245Z,977.16
2017-05-24T06:10:35.951Z,977.11
2017-05-24T06:11:36.659Z,977.05
2017-05-24T06:12:37.360Z,977.13
2017-05-24T06:13:38.268Z,977.11
2017-05-24T06:14:38.973Z,977.07
2017-05-24T06:15:39.683Z,977.10
2017-05-24T06:16:40.388Z,977.15
2017-05-24T06:17:41.094Z,977.16
2017-05-24T06:18:42.052Z,977.17
2017-05-24T06:19:42.757Z,977.18
2017-05-24T06:20:43.463Z,977.14
2017-05-24T06:21:44.168Z,977.13
2017-05-24T06:22:44.875Z,977.17
2017-05-24T06:23:45.833Z,977.13
2017-05-24T06:24:46.543Z,977.34
2017-05-24T06:25:47.247Z,977.21
2017-05-24T06:26:47.948Z,977.19
2017-05-24T06:27:48.649Z,977.18
2017-05-24T06:28:49.608Z,977.31
2017-05-24T06:29:50.311Z,977.24
2017-05-24T06:30:51.017Z,977.27
2017-05-24T06:31:51.720Z,977.26
2017-05-24T06:32:52.431Z,977.35
2017-05-24T06:33:53.385Z,977.33
2017-05-24T06:34:54.091Z,977.35
2017-05-24T06:35:54.793Z,977.37
2017-05-24T06:36:55.496Z,977.37
2017-05-24T06:37:56.201Z,977.39
2017-05-24T06:38:57.159Z,977.38
2017-05-24T06:39:57.865Z,977.33
2017-05-24T06:40:58.568Z,977.23
2017-05-24T06:41:59.267Z,977.26
2017-05-24T06:42:59.970Z,977.17
2017-05-24T06:44:00.926Z,977.24
2017-05-24T06:45:01.628Z,977.27
2017-05-24T06:46:02.331Z,977.22
2017-05-24T06:47:03.038Z,977.22
2017-05-24T06:48:03.745Z,977.23
2017-05-24T06:49:04.648Z,977.19
2017-05-24T06:50:05.354Z,977.16
2017-05-24T06:51:06.055Z,977.15
2017-05-24T06:52:06.758Z,977.26
2017-05-24T06:53:07.468Z,977.27
2017-05-24T06:54:08.429Z,977.34
2017-05-24T06:55:09.133Z,977.30
2017-05-24T06:56:09.772Z,977.27
2017-05-24T06:57:10.536Z,977.20
2017-05-24T06:58:11.248Z,977.25
2017-05-24T06:59:12.206Z,977.30
2017-05-24T07:00:12.910Z,977.27
2017-05-24T07:01:13.613Z,977.23
2017-05-24T07:02:14.316Z,977.28
2017-05-24T07:03:15.030Z,977.26
2017-05-24T07:04:15.940Z,977.36
2017-05-24T07:05:16.646Z,977.43
2017-05-24T07:06:17.350Z,977.31
2017-05-24T07:07:18.053Z,977.32
2017-05-24T07:08:18.753Z,977.26
2017-05-24T07:09:19.656Z,977.31
2017-05-24T07:10:20.360Z,977.31
2017-05-24T07:11:21.031Z,977.35
2017-05-24T07:12:21.754Z,977.29
2017-05-24T07:13:22.471Z,977.41
2017-05-24T07:14:23.425Z,977.35
2017-05-24T07:15:24.131Z,977.30
2017-05-24T07:16:24.836Z,977.27
2017-05-24T07:17:25.539Z,977.38
2017-05-24T07:18:26.242Z,977.39
2017-05-24T07:19:27.153Z,977.36
2017-05-24T07:20:27.867Z,977.42
2017-05-24T07:21:28.570Z,977.31
2017-05-24T07:22:29.272Z,977.32
2017-05-24T07:23:29.975Z,977.33
2017-05-24T07:24:30.881Z,977.33
2017-05-24T07:25:31.594Z,977.36
2017-05-24T07:26:32.306Z,977.32
2017-05-24T07:27:33.008Z,977.27
2017-05-24T07:28:33.724Z,977.25
2017-05-24T07:29:34.633Z,977.22
2017-05-24T07:30:35.337Z,977.20
2017-05-24T07:31:36.043Z,977.13
2017-05-24T07:32:36.745Z,977.15
2017-05-24T07:33:37.453Z,977.23
2017-05-24T07:34:38.160Z,977.20
2017-05-24T07:35:38.865Z,977.20
2017-05-24T07:36:39.569Z,977.17
2017-05-24T07:37:40.275Z,977.21
2017-05-24T07:38:40.983Z,977.18
2017-05-24T07:39:41.938Z,977.19
2017-05-24T07:40:42.640Z,977.18
2017-05-24T07:41:43.346Z,977.17
2017-05-24T07:42:44.058Z,977.16
2017-05-24T07:43:44.761Z,977.18
2017-05-24T07:44:45.720Z,977.16
2017-05-24T07:45:46.424Z,977.25
2017-05-24T07:46:47.133Z,977.22
2017-05-24T07:47:47.847Z,977.21
2017-05-24T07:48:48.551Z,977.23
2017-05-24T07:49:49.454Z,977.25
2017-05-24T07:50:50.165Z,977.28
2017-05-24T07:51:50.872Z,977.38
2017-05-24T07:52:51.575Z,977.39
2017-05-24T07:53:52.282Z,977.44
2017-05-24T07:54:53.245Z,977.40
2017-05-24T07:55:53.959Z,977.43
2017-05-24T07:56:54.669Z,977.48
2017-05-24T07:57:55.379Z,977.40
2017-05-24T07:58:56.090Z,977.45
2017-05-24T07:59:57.047Z,977.46
2017-05-24T08:00:57.751Z,977.45
2017-05-24T08:01:58.455Z,977.50
2017-05-24T08:02:59.158Z,977.49
2017-05-24T08:03:59.863Z,977.53
2017-05-24T08:05:00.768Z,977.48
2017-05-24T08:06:01.473Z,977.43
2017-05-24T08:07:02.175Z,977.45
2017-05-24T08:08:02.880Z,977.47
2017-05-24T08:09:03.585Z,977.43
2017-05-24T08:10:04.552Z,977.38
2017-05-24T08:11:05.256Z,977.43
2017-05-24T08:12:05.964Z,977.49
2017-05-24T08:13:06.670Z,977.42
2017-05-24T08:14:07.377Z,977.48
2017-05-24T08:15:08.334Z,977.47
2017-05-24T08:16:09.039Z,977.41
2017-05-24T08:17:09.746Z,977.40
2017-05-24T08:18:10.451Z,977.42
2017-05-24T08:19:11.155Z,977.38
2017-05-24T08:20:12.062Z,977.37
2017-05-24T08:21:12.767Z,977.45
2017-05-24T08:22:13.475Z,977.49
2017-05-24T08:23:14.180Z,977.45
2017-05-24T08:24:14.883Z,977.54
2017-05-24T08:25:15.786Z,977.37
2017-05-24T08:26:16.488Z,977.43
2017-05-24T08:27:17.206Z,977.43
2017-05-24T08:28:17.914Z,977.43
2017-05-24T08:29:18.620Z,977.46
2017-05-24T08:30:19.576Z,977.43
2017-05-24T08:31:20.282Z,977.57
2017-05-24T08:32:20.988Z,977.54
2017-05-24T08:33:21.692Z,977.53
2017-05-24T08:34:22.398Z,977.50
2017-05-24T08:35:23.300Z,977.44
2017-05-24T08:36:24.022Z,977.45
2017-05-24T08:37:24.727Z,977.49
2017-05-24T08:38:25.430Z,977.51
2017-05-24T08:39:26.135Z,977.52
2017-05-24T08:40:27.090Z,977.54
2017-05-24T08:41:27.796Z,977.50
2017-05-24T08:42:28.499Z,977.46
2017-05-24T08:43:29.200Z,977.50
2017-05-24T08:44:29.901Z,977.50
2017-05-24T08:45:30.810Z,977.44
2017-05-24T08:46:31.529Z,977.52
2017-05-24T08:47:32.238Z,977.51
2017-05-24T08:48:32.945Z,977.55
2017-05-24T08:49:33.656Z,977.49
2017-05-24T08:50:34.624Z,977.48
2017-05-24T08:51:35.329Z,977.44
2017-05-24T08:52:36.036Z,977.46
2017-05-24T08:53:36.744Z,977.41
2017-05-24T08:54:37.450Z,977.41
2017-05-24T08:55:38.402Z,977.45
2017-05-24T08:56:39.112Z,977.44
2017-05-24T08:57:39.817Z,977.51
2017-05-24T08:58:40.524Z,977.48
2017-05-24T08:59:41.230Z,977.52
2017-05-24T09:00:42.184Z,977.53
2017-05-24T09:01:42.900Z,977.60
2017-05-24T09:02:43.614Z,977.65
2017-05-24T09:03:44.326Z,977.65
2017-05-24T09:04:45.031Z,977.67
2017-05-24T09:05:45.938Z,977.67
2017-05-24T09:06:46.641Z,977.63
2017-05-24T09:07:47.344Z,977.63
2017-05-24T09:08:48.099Z,977.73
2017-05-24T09:09:48.809Z,977.70
2017-05-24T09:10:49.768Z,977.72
2017-05-24T09:11:50.473Z,977.72
2017-05-24T09:12:51.181Z,977.73
2017-05-24T09:13:51.891Z,977.66
2017-05-24T09:14:52.599Z,977.74
2017-05-24T09:15:53.555Z,977.66
2017-05-24T09:16:54.266Z,977.67
2017-05-24T09:17:54.972Z,977.70
2017-05-24T09:18:55.680Z,977.75
2017-05-24T09:19:56.388Z,977.66
2017-05-24T09:20:57.295Z,977.73
2017-05-24T09:21:58.006Z,977.72
2017-05-24T09:22:58.711Z,977.62
2017-05-24T09:23:59.416Z,977.60
2017-05-24T09:25:00.129Z,977.62
2017-05-24T09:26:01.084Z,977.63
2017-05-24T09:27:01.791Z,977.68
2017-05-24T09:28:02.499Z,977.63
2017-05-24T09:29:03.203Z,977.66
2017-05-24T09:30:03.911Z,977.63
2017-05-24T09:31:04.867Z,977.69
2017-05-24T09:32:05.573Z,977.73
2017-05-24T09:33:06.281Z,977.68
2017-05-24T09:34:06.988Z,977.67
2017-05-24T09:35:07.694Z,977.65
2017-05-24T09:36:08.605Z,977.62
2017-05-24T09:37:09.309Z,977.60
2017-05-24T09:38:10.018Z,977.66
2017-05-24T09:39:10.738Z,977.54
2017-05-24T09:40:11.445Z,977.56
2017-05-24T09:41:12.404Z,977.58
2017-05-24T09:42:13.115Z,977.64
2017-05-24T09:43:13.819Z,977.68
2017-05-24T09:44:14.588Z,977.58
2017-05-24T09:45:15.297Z,977.65
2017-05-24T09:46:16.255Z,977.60
2017-05-24T09:47:16.963Z,977.68
2017-05-24T09:48:17.675Z,977.68
2017-05-24T09:49:18.386Z,977.76
2017-05-24T09:50:19.097Z,977.71
2017-05-24T09:51:20.055Z,977.61
2017-05-24T09:52:20.764Z,977.59
2017-05-24T09:53:21.474Z,977.53
2017-05-24T09:54:22.181Z,977.53
2017-05-24T09:55:22.890Z,977.54
2017-05-24T09:56:23.849Z,977.53
2017-05-24T09:57:24.554Z,977.56
2017-05-24T09:58:25.261Z,977.48
2017-05-24T09:59:25.970Z,977.49
2017-05-24T10:00:26.681Z,977.47
2017-05-24T10:01:27.388Z,977.53
2017-05-24T10:02:28.099Z,977.53
2017-05-24T10:03:28.812Z,977.51
2017-05-24T10:04:29.521Z,977.50
2017-05-24T10:05:30.225Z,977.49
2017-05-24T10:06:31.133Z,977.54
2017-05-24T10:07:31.841Z,977.49
2017-05-24T10:08:32.548Z,977.48
2017-05-24T10:09:33.254Z,977.55
2017-05-24T10:10:33.964Z,977.53
2017-05-24T10:11:34.921Z,977.56
2017-05-24T10:12:35.629Z,977.55
2017-05-24T10:13:36.336Z,977.49
2017-05-24T10:14:37.041Z,977.55
2017-05-24T10:15:37.747Z,977.52
2017-05-24T10:16:38.705Z,977.52
2017-05-24T10:17:39.410Z,977.51
2017-05-24T10:18:40.115Z,977.49
2017-05-24T10:19:40.833Z,977.51
2017-05-24T10:20:41.543Z,977.46
2017-05-24T10:21:42.505Z,977.45
2017-05-24T10:22:43.212Z,977.43
2017-05-24T10:23:43.921Z,977.43
2017-05-24T10:24:44.626Z,977.49
2017-05-24T10:25:45.332Z,977.46
2017-05-24T10:26:46.239Z,977.41
2017-05-24T10:27:46.944Z,977.43
2017-05-24T10:28:47.650Z,977.46
2017-05-24T10:29:48.366Z,977.43
2017-05-24T10:30:49.070Z,977.41
2017-05-24T10:31:50.028Z,977.43
2017-05-24T10:32:50.734Z,977.44
2017-05-24T10:33:51.449Z,977.39
2017-05-24T10:34:52.159Z,977.48
2017-05-24T10:35:52.871Z,977.44
2017-05-24T10:36:53.782Z,977.46
2017-05-24T10:37:54.488Z,977.48
2017-05-24T10:38:55.199Z,977.51
2017-05-24T10:39:55.910Z,977.53
2017-05-24T10:40:56.620Z,977.50
2017-05-24T10:41:57.575Z,977.48
2017-05-24T10:42:58.285Z,977.55
2017-05-24T10:43:58.990Z,977.50
2017-05-24T10:44:59.697Z,977.50
2017-05-24T10:46:00.410Z,977.49
2017-05-24T10:47:01.314Z,977.52
2017-05-24T10:48:02.027Z,977.47
2017-05-24T10:49:02.735Z,977.48
2017-05-24T10:50:03.445Z,977.50
2017-05-24T10:51:04.155Z,977.50
2017-05-24T10:52:05.111Z,977.49
2017-05-24T10:53:05.814Z,977.48
2017-05-24T10:54:06.525Z,977.44
2017-05-24T10:55:07.232Z,977.46
2017-05-24T10:56:07.936Z,977.45
2017-05-24T10:57:08.892Z,977.44
2017-05-24T10:58:09.595Z,977.39
2017-05-24T10:59:10.310Z,977.39
2017-05-24T11:00:11.020Z,977.39
2017-05-24T11:01:11.728Z,977.29
2017-05-24T11:02:12.639Z,977.28
2017-05-24T11:03:13.345Z,977.31
2017-05-24T11:04:14.053Z,977.28
2017-05-24T11:05:14.765Z,977.25
2017-05-24T11:06:15.475Z,977.30
2017-05-24T11:07:16.433Z,977.30
2017-05-24T11:08:17.141Z,977.30
2017-05-24T11:09:17.853Z,977.33
2017-05-24T11:10:18.567Z,977.30
2017-05-24T11:11:19.275Z,977.32
2017-05-24T11:12:20.233Z,977.27
2017-05-24T11:13:20.940Z,977.30
2017-05-24T11:14:21.646Z,977.26
2017-05-24T11:15:22.353Z,977.28
2017-05-24T11:16:23.061Z,977.28
2017-05-24T11:17:24.016Z,977.28
2017-05-24T11:18:24.722Z,977.26
2017-05-24T11:19:25.429Z,977.21
2017-05-24T11:20:26.138Z,977.23
2017-05-24T11:21:26.857Z,977.17
2017-05-24T11:22:27.814Z,977.15
2017-05-24T11:23:28.519Z,977.18
2017-05-24T11:24:29.226Z,977.18
2017-05-24T11:25:29.931Z,977.23
2017-05-24T11:26:30.642Z,977.23
2017-05-24T11:27:31.599Z,977.27
2017-05-24T11:28:32.307Z,977.22
2017-05-24T11:29:33.016Z,977.23
2017-05-24T11:30:33.727Z,977.24
2017-05-24T11:31:34.441Z,977.21
2017-05-24T11:32:35.400Z,977.20
2017-05-24T11:33:36.112Z,977.28
2017-05-24T11:34:36.823Z,977.19
2017-05-24T11:35:37.532Z,977.12
2017-05-24T11:36:38.242Z,977.07
2017-05-24T11:37:39.199Z,977.09
2017-05-24T11:38:39.909Z,977.13
2017-05-24T11:39:40.622Z,977.22
2017-05-24T11:40:41.330Z,977.14
2017-05-24T11:41:42.041Z,977.11
2017-05-24T11:42:43.004Z,977.13
2017-05-24T11:43:43.716Z,977.12
2017-05-24T11:44:44.427Z,977.20
2017-05-24T11:45:45.140Z,977.18
2017-05-24T11:46:45.846Z,977.12
2017-05-24T11:47:46.803Z,977.13
2017-05-24T11:48:47.516Z,977.13
2017-05-24T11:49:48.227Z,977.16
2017-05-24T11:50:48.936Z,977.11
2017-05-24T11:51:49.650Z,977.09
2017-05-24T11:52:50.610Z,977.08
2017-05-24T11:53:51.331Z,977.07
2017-05-24T11:54:52.039Z,977.04
2017-05-24T11:55:52.748Z,977.06
2017-05-24T11:56:53.463Z,977.15
2017-05-24T11:57:54.424Z,977.10
2017-05-24T11:58:55.135Z,977.07
2017-05-24T11:59:55.843Z,977.16
2017-05-24T12:00:56.551Z,977.07
2017-05-24T12:01:57.257Z,977.03
2017-05-24T12:02:58.215Z,977.09
2017-05-24T12:03:58.930Z,977.08
2017-05-24T12:04:59.654Z,977.02
2017-05-24T12:06:00.365Z,977.03
2017-05-24T12:07:01.078Z,977.02
2017-05-24T12:08:02.038Z,976.97
2017-05-24T12:09:02.746Z,977.10
2017-05-24T12:10:03.455Z,977.07
2017-05-24T12:11:04.164Z,977.07
2017-05-24T12:12:04.884Z,977.10
2017-05-24T12:13:05.840Z,977.02
2017-05-24T12:14:06.551Z,976.95
2017-05-24T12:15:07.264Z,977.00
2017-05-24T12:16:07.968Z,976.86
2017-05-24T12:17:08.673Z,976.92
2017-05-24T12:18:09.581Z,976.93
2017-05-24T12:19:10.292Z,976.90
2017-05-24T12:20:11.004Z,976.81
2017-05-24T12:21:11.712Z,976.90
2017-05-24T12:22:12.432Z,976.93
2017-05-24T12:23:13.346Z,976.84
2017-05-24T12:24:14.063Z,976.92
2017-05-24T12:25:14.780Z,976.92
2017-05-24T12:26:15.490Z,976.89
2017-05-24T12:27:16.198Z,976.86
2017-05-24T12:28:17.159Z,976.92
2017-05-24T12:29:17.874Z,976.97
2017-05-24T12:30:18.579Z,976.94
2017-05-24T12:31:19.284Z,976.95
2017-05-24T12:32:19.993Z,976.91
2017-05-24T12:33:20.949Z,976.93
2017-05-24T12:34:21.658Z,976.90
2017-05-24T12:35:22.368Z,976.91
2017-05-24T12:36:23.080Z,976.95
2017-05-24T12:37:23.785Z,976.93